createdAt,value
2017-11-20T00:03:24.039Z,1.80
2017-11-20T00:08:26.673Z,1.10
2017-11-20T00:13:29.330Z,1.30
2017-11-20T00:18:31.910Z,1.40
2017-11-20T00:23:34.472Z,1.40
2017-11-20T00:28:37.122Z,1.70
2017-11-20T00:33:39.703Z,1.43
2017-11-20T00:38:42.288Z,1.90
2017-11-20T00:48:56.504Z,1.27
2017-11-20T00:53:59.147Z,1.37
2017-11-20T00:59:02.121Z,1.20
2017-11-20T01:04:04.745Z,1.47
2017-11-20T01:09:07.329Z,1.33
2017-11-20T01:14:09.913Z,1.57
2017-11-20T01:19:12.485Z,1.40
2017-11-20T01:24:15.055Z,0.90
2017-11-20T01:29:17.665Z,1.50
2017-11-20T01:34:20.316Z,1.23
2017-11-20T01:39:23.716Z,1.30
2017-11-20T01:44:26.309Z,1.03
2017-11-20T01:49:28.905Z,0.90
2017-11-20T01:54:32.260Z,1.03
2017-11-20T01:59:34.846Z,1.00
2017-11-20T02:04:37.549Z,1.10
2017-11-20T02:09:40.344Z,1.10
2017-11-20T02:14:42.908Z,1.30
2017-11-20T02:19:45.531Z,1.70
2017-11-20T02:24:48.099Z,1.40
2017-11-20T02:29:50.675Z,1.50
2017-11-20T02:34:53.258Z,1.30
2017-11-20T02:39:55.833Z,1.60
2017-11-20T02:44:58.401Z,1.40
2017-11-20T02:50:01.007Z,1.80
2017-11-20T02:55:03.623Z,1.67
2017-11-20T03:00:06.288Z,1.40
2017-11-20T03:05:08.944Z,1.40
2017-11-20T03:10:11.578Z,0.97
2017-11-20T03:15:14.581Z,1.30
2017-11-20T03:20:18.057Z,1.20
2017-11-20T03:25:21.425Z,1.53
2017-11-20T03:30:24.086Z,1.43
2017-11-20T03:35:26.719Z,1.30
2017-11-20T03:40:29.345Z,1.20
2017-11-20T03:45:31.940Z,1.67
2017-11-20T03:50:34.511Z,1.17
2017-11-20T03:55:37.078Z,1.30
2017-11-20T04:00:39.775Z,1.20
2017-11-20T04:05:42.419Z,0.90
2017-11-20T04:10:45.063Z,1.50
2017-11-20T04:15:47.653Z,1.30
2017-11-20T04:20:50.254Z,1.17
2017-11-20T04:25:53.614Z,0.87
2017-11-20T04:30:56.178Z,1.00
2017-11-20T04:35:58.949Z,0.90
2017-11-20T04:41:02.317Z,1.10
2017-11-20T04:46:06.528Z,1.23
2017-11-20T04:51:09.232Z,1.00
2017-11-20T04:56:11.819Z,1.13
2017-11-20T05:01:14.389Z,1.20
2017-11-20T05:06:18.555Z,1.20
2017-11-20T05:11:21.209Z,1.20
2017-11-20T05:16:23.808Z,1.20
2017-11-20T05:21:26.380Z,1.13
2017-11-20T05:26:29.028Z,1.13
2017-11-20T05:31:31.615Z,0.80
2017-11-20T05:36:34.267Z,1.40
2017-11-20T05:41:36.876Z,1.23
2017-11-20T05:46:39.452Z,0.80
2017-11-20T05:51:42.760Z,0.80
2017-11-20T05:56:45.357Z,1.10
2017-11-20T06:01:47.980Z,0.90
2017-11-20T06:06:51.360Z,0.93
2017-11-20T06:11:54.157Z,1.83
2017-11-20T06:16:56.856Z,0.73
2017-11-20T06:21:59.482Z,0.90
2017-11-20T06:27:02.071Z,0.97
2017-11-20T06:32:04.661Z,0.87
2017-11-20T06:37:08.315Z,1.23
2017-11-20T06:42:10.966Z,0.80
2017-11-20T06:47:13.592Z,0.97
2017-11-20T06:52:16.301Z,1.00
2017-11-20T06:57:19.711Z,0.90
2017-11-20T07:02:22.383Z,1.00
2017-11-20T07:07:24.975Z,1.10
2017-11-20T07:12:27.540Z,1.10
2017-11-20T07:17:30.181Z,1.10
2017-11-20T07:22:33.606Z,0.90
2017-11-20T07:28:03.030Z,0.90
2017-11-20T07:33:05.732Z,0.90
2017-11-20T07:38:18.183Z,0.83
2017-11-20T07:43:20.824Z,0.80
2017-11-20T07:48:23.456Z,1.00
2017-11-20T07:53:26.086Z,0.87
2017-11-20T07:58:28.659Z,1.43
2017-11-20T08:03:31.339Z,0.70
2017-11-20T08:08:33.936Z,0.93
2017-11-20T08:13:37.411Z,0.90
2017-11-20T08:18:39.996Z,0.77
2017-11-20T08:23:42.628Z,0.80
2017-11-20T08:28:46.040Z,0.80
2017-11-20T08:33:48.678Z,0.57
2017-11-20T08:38:51.507Z,0.80
2017-11-20T08:43:54.125Z,0.70
2017-11-20T08:48:56.766Z,0.80
2017-11-20T08:53:59.450Z,1.33
2017-11-20T08:59:02.064Z,0.93
2017-11-20T09:04:04.688Z,0.80
2017-11-20T09:09:07.251Z,0.80
2017-11-20T09:14:09.852Z,0.67
2017-11-20T09:19:12.441Z,0.90
2017-11-20T09:24:15.950Z,0.93
2017-11-20T09:29:18.567Z,1.20
2017-11-20T09:34:21.181Z,1.13
2017-11-20T09:39:23.780Z,1.53
2017-11-20T09:44:26.405Z,1.50
2017-11-20T09:49:29.023Z,1.40
2017-11-20T09:54:31.608Z,2.13
2017-11-20T09:59:34.205Z,1.77
2017-11-20T10:04:37.028Z,1.40
2017-11-20T10:09:40.112Z,1.20
2017-11-20T10:14:42.802Z,1.40
2017-11-20T10:19:45.496Z,1.60
2017-11-20T10:24:48.095Z,1.27
2017-11-20T10:29:52.068Z,1.03
2017-11-20T10:34:54.696Z,1.20
2017-11-20T10:39:57.390Z,0.93
2017-11-20T10:45:00.119Z,1.30
2017-11-20T10:50:02.721Z,1.67
2017-11-20T10:55:05.336Z,1.20
2017-11-20T11:00:08.663Z,1.50
2017-11-20T11:05:11.296Z,1.10
2017-11-20T11:10:13.996Z,1.00
2017-11-20T11:15:16.618Z,2.00
2017-11-20T11:20:19.264Z,2.33
2017-11-20T11:25:21.860Z,2.80
2017-11-20T11:30:24.454Z,2.70
2017-11-20T11:35:27.149Z,2.50
2017-11-20T11:40:29.721Z,3.57
2017-11-20T11:45:32.311Z,2.80
2017-11-20T11:50:34.960Z,3.10
2017-11-20T11:55:38.373Z,3.13
2017-11-20T12:00:41.009Z,2.53
2017-11-20T12:05:43.693Z,1.97
2017-11-20T12:10:46.308Z,2.13
2017-11-20T12:15:48.933Z,2.17
2017-11-20T12:20:51.506Z,1.67
2017-11-20T12:25:54.205Z,1.90
2017-11-20T12:30:56.800Z,1.80
2017-11-20T12:35:59.425Z,1.50
2017-11-20T12:41:02.090Z,1.53
2017-11-20T12:46:04.690Z,1.40
2017-11-20T12:51:07.933Z,1.53
2017-11-20T12:56:10.515Z,1.60
2017-11-20T13:01:13.156Z,1.87
2017-11-20T13:06:15.828Z,1.50
2017-11-20T13:11:19.228Z,1.90
2017-11-20T13:16:22.606Z,1.40
2017-11-20T13:21:25.335Z,1.40
2017-11-20T13:26:28.831Z,2.10
2017-11-20T13:31:31.475Z,1.03
2017-11-20T13:36:35.099Z,2.33
2017-11-20T13:41:38.605Z,1.20
2017-11-20T13:46:41.224Z,1.10
2017-11-20T13:51:44.397Z,1.43
2017-11-20T13:56:47.043Z,1.03
2017-11-20T14:01:49.742Z,1.20
2017-11-20T14:06:52.484Z,1.70
2017-11-20T14:11:55.176Z,1.10
2017-11-20T14:17:02.228Z,1.10
2017-11-20T14:22:05.796Z,1.20
2017-11-20T14:27:08.413Z,1.57
2017-11-20T14:32:11.035Z,1.20
2017-11-20T14:37:13.839Z,1.17
2017-11-20T14:42:16.469Z,1.40
2017-11-20T14:47:19.862Z,1.40
2017-11-20T14:52:22.715Z,1.30
2017-11-20T14:57:25.452Z,1.60
2017-11-20T15:02:28.033Z,1.30
2017-11-20T15:07:30.704Z,1.13
2017-11-20T15:12:33.355Z,1.30
2017-11-20T15:17:36.121Z,1.10
2017-11-20T15:22:38.752Z,1.10
2017-11-20T15:27:41.640Z,1.40
2017-11-20T15:32:45.951Z,1.50
2017-11-20T15:37:51.472Z,1.60
2017-11-20T15:42:55.611Z,1.37
2017-11-20T15:48:02.853Z,1.80
2017-11-20T15:53:06.758Z,1.63
2017-11-20T15:58:10.166Z,1.60
2017-11-20T16:03:12.786Z,1.37
2017-11-20T16:08:15.461Z,1.33
2017-11-20T16:13:18.866Z,1.63
2017-11-20T16:18:22.413Z,1.37
2017-11-20T16:23:25.101Z,1.47
2017-11-20T16:28:27.997Z,1.60
2017-11-20T16:33:30.735Z,1.73
2017-11-20T16:38:33.309Z,1.90
2017-11-20T16:43:35.899Z,1.70
2017-11-20T16:48:39.038Z,2.50
2017-11-20T16:53:42.522Z,1.90
2017-11-20T16:58:48.806Z,2.07
2017-11-20T17:03:51.501Z,1.50
2017-11-20T17:08:54.103Z,2.00
2017-11-20T17:13:56.795Z,1.50
2017-11-20T17:18:59.387Z,1.70
2017-11-20T17:24:02.791Z,1.70
2017-11-20T17:29:06.171Z,1.60
2017-11-20T17:34:08.886Z,1.80
2017-11-20T17:39:12.250Z,2.13
2017-11-20T17:44:14.849Z,1.97
2017-11-20T17:49:17.612Z,2.30
2017-11-20T17:54:20.266Z,1.97
2017-11-20T17:59:23.207Z,1.80
2017-11-20T18:04:26.043Z,1.63
2017-11-20T18:09:28.679Z,2.30
2017-11-20T18:14:31.252Z,1.70
2017-11-20T18:19:33.860Z,1.90
2017-11-20T18:24:36.436Z,1.53
2017-11-20T18:29:39.735Z,1.70
2017-11-20T18:34:42.485Z,1.70
2017-11-20T18:39:45.078Z,1.93
2017-11-20T18:44:47.668Z,1.47
2017-11-20T18:49:51.023Z,1.40
2017-11-20T18:54:53.950Z,1.60
2017-11-20T19:00:08.336Z,1.90
2017-11-20T19:05:22.614Z,1.70
2017-11-20T19:10:26.377Z,1.90
2017-11-20T19:15:29.029Z,1.63
2017-11-20T19:20:31.873Z,1.80
2017-11-20T19:25:35.268Z,2.13
2017-11-20T19:30:37.926Z,1.80
2017-11-20T19:35:40.576Z,2.30
2017-11-20T19:40:43.286Z,1.83
2017-11-20T19:45:45.893Z,1.90
2017-11-20T19:50:48.524Z,1.90
2017-11-20T19:55:51.160Z,1.90
2017-11-20T20:00:55.795Z,2.40
2017-11-20T20:05:58.749Z,2.23
2017-11-20T20:11:01.480Z,1.97
2017-11-20T20:21:41.989Z,2.10
2017-11-20T20:26:44.569Z,2.20
2017-11-20T20:31:47.231Z,1.83
2017-11-20T20:36:49.907Z,2.10
2017-11-20T20:41:52.526Z,2.07
2017-11-20T20:46:55.449Z,2.30
2017-11-20T20:51:59.175Z,2.90
2017-11-20T20:57:02.132Z,2.27
2017-11-20T21:02:05.480Z,3.00
2017-11-20T21:07:08.279Z,3.03
2017-11-20T21:12:16.506Z,2.73
2017-11-20T21:17:19.390Z,2.67
2017-11-20T21:22:23.890Z,2.77
2017-11-20T21:27:26.513Z,3.30
2017-11-20T21:32:29.552Z,2.90
2017-11-20T21:37:32.169Z,2.03
2017-11-20T21:42:34.789Z,2.50
2017-11-20T21:47:37.828Z,1.97
2017-11-20T21:52:40.928Z,2.00
2017-11-20T21:57:44.287Z,1.97
2017-11-20T22:02:47.173Z,2.07
2017-11-20T22:07:49.748Z,2.57
2017-11-20T22:13:05.038Z,2.20
2017-11-20T22:18:09.068Z,2.63
2017-11-20T22:23:12.382Z,1.90
2017-11-20T22:28:15.144Z,2.30
2017-11-20T22:33:17.751Z,2.03
2017-11-20T22:38:20.452Z,1.90
2017-11-20T22:43:24.321Z,1.60
2017-11-20T22:48:27.509Z,1.77
2017-11-20T22:53:30.148Z,2.30
2017-11-20T22:58:32.806Z,3.10
2017-11-20T23:03:35.551Z,2.97
2017-11-20T23:08:38.184Z,3.07
2017-11-20T23:13:41.525Z,3.57
2017-11-20T23:18:44.320Z,3.70
2017-11-20T23:23:46.950Z,3.20
2017-11-20T23:28:49.560Z,3.23
2017-11-20T23:33:52.483Z,3.20
2017-11-20T23:38:55.095Z,3.03
2017-11-20T23:43:58.492Z,3.53
2017-11-20T23:49:01.153Z,2.57
2017-11-20T23:54:04.440Z,3.27
2017-11-20T23:59:07.255Z,2.87
